createdAt,value
2022-10-14T00:01:27.057Z,49.33
2022-10-14T00:03:56.516Z,49.49
2022-10-14T00:06:28.917Z,49.38
2022-10-14T00:09:00.427Z,49.27
2022-10-14T00:11:32.051Z,49.50
2022-10-14T00:14:03.961Z,49.63
2022-10-14T00:16:36.583Z,49.69
2022-10-14T00:19:06.523Z,49.63
2022-10-14T00:21:38.350Z,49.62
2022-10-14T00:24:07.511Z,49.73
2022-10-14T00:26:39.161Z,49.70
2022-10-14T00:29:11.164Z,49.82
2022-10-14T00:31:39.536Z,49.89
2022-10-14T00:34:07.960Z,49.88
2022-10-14T00:36:37.724Z,49.99
2022-10-14T00:39:06.162Z,49.95
2022-10-14T00:41:36.137Z,50.00
2022-10-14T00:44:08.000Z,50.07
2022-10-14T00:46:39.152Z,49.99
2022-10-14T00:49:13.234Z,50.07
2022-10-14T00:51:47.835Z,50.20
2022-10-14T00:54:20.938Z,50.07
2022-10-14T00:56:50.682Z,50.27
2022-10-14T00:59:19.403Z,50.32
2022-10-14T01:01:47.929Z,50.37
2022-10-14T01:04:16.353Z,50.27
2022-10-14T01:06:55.711Z,50.32
2022-10-14T01:09:32.522Z,50.38
2022-10-14T01:12:28.107Z,50.60
2022-10-14T01:15:05.319Z,50.59
2022-10-14T01:17:48.249Z,50.63
2022-10-14T01:20:42.617Z,50.62
2022-10-14T01:23:47.517Z,50.73
2022-10-14T01:26:41.508Z,50.74
2022-10-14T01:29:26.871Z,50.78
2022-10-14T01:32:03.820Z,50.90
2022-10-14T01:34:38.028Z,50.93
2022-10-14T01:37:13.233Z,50.98
2022-10-14T01:39:46.948Z,50.91
2022-10-14T01:42:21.355Z,50.97
2022-10-14T01:44:57.938Z,51.11
2022-10-14T01:47:32.244Z,51.18
2022-10-14T01:50:05.310Z,51.14
2022-10-14T01:52:39.603Z,51.09
2022-10-14T01:55:14.962Z,51.11
2022-10-14T01:57:45.273Z,51.29
2022-10-14T02:00:15.448Z,51.26
2022-10-14T02:02:45.204Z,51.45
2022-10-14T02:05:20.982Z,51.33
2022-10-14T02:07:53.839Z,51.44
2022-10-14T02:10:37.586Z,51.48
2022-10-14T02:13:21.623Z,51.45
2022-10-14T02:16:05.248Z,51.75
2022-10-14T02:18:43.519Z,51.76
2022-10-14T02:21:20.811Z,51.76
2022-10-14T02:23:57.716Z,51.94
2022-10-14T02:26:27.670Z,52.09
2022-10-14T02:28:57.889Z,52.05
2022-10-14T02:31:29.107Z,52.10
2022-10-14T02:34:04.857Z,52.19
2022-10-14T02:36:35.768Z,52.03
2022-10-14T02:39:07.508Z,51.97
2022-10-14T02:41:39.039Z,51.79
2022-10-14T02:44:08.189Z,52.00
2022-10-14T02:46:37.243Z,52.09
2022-10-14T02:49:06.965Z,52.00
2022-10-14T02:51:35.384Z,52.05
2022-10-14T02:54:03.758Z,52.10
2022-10-14T02:56:32.147Z,52.03
2022-10-14T02:59:00.486Z,52.08
2022-10-14T03:01:30.005Z,52.09
2022-10-14T03:04:01.047Z,52.08
2022-10-14T03:06:30.756Z,52.23
2022-10-14T03:08:59.101Z,52.07
2022-10-14T03:11:27.414Z,52.01
2022-10-14T03:13:55.761Z,52.06
2022-10-14T03:16:24.093Z,52.02
2022-10-14T03:18:52.467Z,52.12
2022-10-14T03:21:21.215Z,52.15
2022-10-14T03:23:50.966Z,52.15
2022-10-14T03:26:19.289Z,52.23
2022-10-14T03:28:47.736Z,52.27
2022-10-14T03:31:16.097Z,52.19
2022-10-14T03:33:44.485Z,52.07
2022-10-14T03:36:13.255Z,52.18
2022-10-14T03:38:41.620Z,52.02
2022-10-14T03:41:11.329Z,52.08
2022-10-14T03:43:39.674Z,51.93
2022-10-14T03:46:08.035Z,51.98
2022-10-14T03:48:36.390Z,52.04
2022-10-14T03:51:04.897Z,51.92
2022-10-14T03:53:33.289Z,51.84
2022-10-14T03:56:01.605Z,51.97
2022-10-14T03:58:31.340Z,51.84
2022-10-14T04:00:59.764Z,51.89
2022-10-14T04:03:28.176Z,51.76
2022-10-14T04:05:56.575Z,51.77
2022-10-14T04:08:24.918Z,51.91
2022-10-14T04:10:54.444Z,51.85
2022-10-14T04:13:23.273Z,51.78
2022-10-14T04:15:53.038Z,51.69
2022-10-14T04:18:21.403Z,51.54
2022-10-14T04:20:49.805Z,51.65
2022-10-14T04:23:18.127Z,51.62
2022-10-14T04:25:46.558Z,51.62
2022-10-14T04:28:15.325Z,51.55
2022-10-14T04:30:44.076Z,51.38
2022-10-14T04:33:13.842Z,51.44
2022-10-14T04:35:42.204Z,51.61
2022-10-14T04:38:10.544Z,51.49
2022-10-14T04:40:38.938Z,51.41
2022-10-14T04:43:07.304Z,51.43
2022-10-14T04:45:35.652Z,51.40
2022-10-14T04:48:04.009Z,51.40
2022-10-14T04:50:33.779Z,51.25
2022-10-14T04:53:02.394Z,51.30
2022-10-14T04:55:30.952Z,51.14
2022-10-14T04:57:59.344Z,51.25
2022-10-14T05:00:27.784Z,51.29
2022-10-14T05:02:56.160Z,51.23
2022-10-14T05:05:24.523Z,51.25
2022-10-14T05:07:54.275Z,51.29
2022-10-14T05:10:23.010Z,51.22
2022-10-14T05:12:52.096Z,51.26
2022-10-14T05:15:20.470Z,51.21
2022-10-14T05:17:49.273Z,51.11
2022-10-14T05:20:17.842Z,51.15
2022-10-14T05:22:46.503Z,51.00
2022-10-14T05:25:16.421Z,51.12
2022-10-14T05:27:44.776Z,51.07
2022-10-14T05:30:14.549Z,50.95
2022-10-14T05:32:42.903Z,50.86
2022-10-14T05:35:11.645Z,50.93
2022-10-14T05:37:40.025Z,50.84
2022-10-14T05:40:11.313Z,50.91
2022-10-14T05:42:41.097Z,50.83
2022-10-14T05:45:11.340Z,50.79
2022-10-14T05:47:39.694Z,50.73
2022-10-14T05:50:09.282Z,50.97
2022-10-14T05:52:37.725Z,50.79
2022-10-14T05:55:07.573Z,50.79
2022-10-14T05:57:36.062Z,50.98
2022-10-14T06:00:08.036Z,51.01
2022-10-14T06:02:36.397Z,51.01
2022-10-14T06:05:05.394Z,50.90
2022-10-14T06:07:36.084Z,51.01
2022-10-14T06:10:04.713Z,51.14
2022-10-14T06:12:33.202Z,50.93
2022-10-14T06:15:01.529Z,50.99
2022-10-14T06:17:31.434Z,51.38
2022-10-14T06:19:59.837Z,51.51
2022-10-14T06:22:29.931Z,51.69
2022-10-14T06:25:01.754Z,51.82
2022-10-14T06:27:32.516Z,51.98
2022-10-14T06:30:00.917Z,52.44
2022-10-14T06:32:30.699Z,52.83
2022-10-14T06:34:59.069Z,53.11
2022-10-14T06:37:27.431Z,53.40
2022-10-14T06:39:55.782Z,53.75
2022-10-14T06:42:24.292Z,54.04
2022-10-14T06:44:52.822Z,54.62
2022-10-14T06:47:21.463Z,55.04
2022-10-14T06:49:51.214Z,55.16
2022-10-14T06:52:19.719Z,55.38
2022-10-14T06:54:48.536Z,56.05
2022-10-14T06:57:17.222Z,56.17
2022-10-14T06:59:46.084Z,56.68
2022-10-14T07:02:14.504Z,56.63
2022-10-14T07:04:43.076Z,57.03
2022-10-14T07:07:12.856Z,57.00
2022-10-14T07:09:41.224Z,57.62
2022-10-14T07:12:09.608Z,58.35
2022-10-14T07:14:37.993Z,58.42
2022-10-14T07:17:08.170Z,58.64
2022-10-14T07:19:36.755Z,58.63
2022-10-14T07:22:05.789Z,58.69
2022-10-14T07:24:35.629Z,59.03
2022-10-14T07:29:37.622Z,59.22
2022-10-14T07:32:06.271Z,59.23
2022-10-14T07:34:34.959Z,59.25
2022-10-14T07:37:03.476Z,59.65
2022-10-14T07:39:31.937Z,59.70
2022-10-14T07:42:01.782Z,59.69
2022-10-14T07:44:30.536Z,59.73
2022-10-14T07:47:01.705Z,59.71
2022-10-14T07:49:30.290Z,60.01
2022-10-14T07:51:58.775Z,59.87
2022-10-14T07:54:29.562Z,60.09
2022-10-14T07:56:59.015Z,60.15
2022-10-14T07:59:28.806Z,60.08
2022-10-14T08:01:57.406Z,60.32
2022-10-14T08:04:26.772Z,60.54
2022-10-14T08:06:55.164Z,60.66
2022-10-14T08:09:24.009Z,60.87
2022-10-14T08:11:52.546Z,60.93
2022-10-14T08:14:21.005Z,61.15
2022-10-14T08:16:50.782Z,61.25
2022-10-14T08:19:19.480Z,61.38
2022-10-14T08:21:47.933Z,61.40
2022-10-14T08:24:16.392Z,61.56
2022-10-14T08:26:52.654Z,61.80
2022-10-14T08:29:23.365Z,61.87
2022-10-14T08:31:55.315Z,61.38
2022-10-14T08:34:24.625Z,61.31
2022-10-14T08:36:53.082Z,61.32
2022-10-14T08:39:22.575Z,61.23
2022-10-14T08:42:26.558Z,61.07
2022-10-14T08:44:59.137Z,61.37
2022-10-14T08:47:40.550Z,61.49
2022-10-14T08:50:26.986Z,61.49
2022-10-14T08:53:01.644Z,61.75
2022-10-14T08:55:38.352Z,61.95
2022-10-14T08:58:15.362Z,62.10
2022-10-14T09:00:48.049Z,62.22
2022-10-14T09:03:23.033Z,62.35
2022-10-14T09:05:59.853Z,62.29
2022-10-14T09:08:34.929Z,62.36
2022-10-14T09:11:03.693Z,62.13
2022-10-14T09:13:38.330Z,61.85
2022-10-14T09:16:13.706Z,61.89
2022-10-14T09:18:53.853Z,61.68
2022-10-14T09:21:40.848Z,61.45
2022-10-14T09:24:24.148Z,61.63
2022-10-14T09:26:58.431Z,61.33
2022-10-14T09:29:29.801Z,61.28
2022-10-14T09:32:01.110Z,61.14
2022-10-14T09:34:38.204Z,61.09
2022-10-14T09:37:31.542Z,60.95
2022-10-14T09:40:05.962Z,61.28
2022-10-14T09:42:49.160Z,61.13
2022-10-14T09:45:20.504Z,61.16
2022-10-14T09:47:56.454Z,61.26
2022-10-14T09:50:39.862Z,60.63
2022-10-14T09:53:17.813Z,60.19
2022-10-14T09:55:53.412Z,59.38
2022-10-14T09:58:34.196Z,58.65
2022-10-14T10:01:03.881Z,58.37
2022-10-14T10:03:35.594Z,58.08
2022-10-14T10:06:09.662Z,57.65
2022-10-14T10:08:41.340Z,58.03
2022-10-14T10:11:14.030Z,57.71
2022-10-14T10:13:45.662Z,57.49
2022-10-14T10:16:24.704Z,57.59
2022-10-14T10:18:57.303Z,57.64
2022-10-14T10:21:30.231Z,57.23
2022-10-14T10:24:01.344Z,56.85
2022-10-14T10:26:33.532Z,56.50
2022-10-14T10:29:03.673Z,56.86
2022-10-14T10:32:13.593Z,57.09
2022-10-14T10:35:12.032Z,56.46
2022-10-14T10:37:56.921Z,56.38
2022-10-14T10:40:42.104Z,56.20
2022-10-14T10:43:43.282Z,55.63
2022-10-14T10:46:45.114Z,55.38
2022-10-14T10:49:27.863Z,55.05
2022-10-14T10:52:01.502Z,54.88
2022-10-14T10:54:43.796Z,54.94
2022-10-14T10:57:30.284Z,54.85
2022-10-14T11:00:02.634Z,54.82
2022-10-14T11:03:00.442Z,54.49
2022-10-14T11:05:51.851Z,54.34
2022-10-14T11:09:22.736Z,53.78
2022-10-14T11:12:07.650Z,53.22
2022-10-14T11:15:16.026Z,52.91
2022-10-14T11:17:55.098Z,52.75
2022-10-14T11:20:37.221Z,52.05
2022-10-14T11:23:38.231Z,51.51
2022-10-14T11:26:21.291Z,51.42
2022-10-14T11:29:04.130Z,51.09
2022-10-14T11:31:41.826Z,50.90
2022-10-14T11:34:33.250Z,50.87
2022-10-14T11:37:10.870Z,50.65
2022-10-14T11:39:48.159Z,50.65
2022-10-14T11:42:30.272Z,50.24
2022-10-14T11:45:21.561Z,49.81
2022-10-14T11:47:54.799Z,49.46
2022-10-14T11:50:30.311Z,49.42
2022-10-14T11:53:09.539Z,49.20
2022-10-14T11:55:44.376Z,48.80
2022-10-14T11:58:18.559Z,48.79
2022-10-14T12:00:55.106Z,48.33
2022-10-14T12:03:30.594Z,48.05
2022-10-14T12:06:05.489Z,48.15
2022-10-14T12:08:41.370Z,47.71
2022-10-14T12:11:15.307Z,47.72
2022-10-14T12:13:48.182Z,47.67
2022-10-14T12:16:21.167Z,47.32
2022-10-14T12:18:54.925Z,47.23
2022-10-14T12:21:31.353Z,46.82
2022-10-14T12:24:05.915Z,45.92
2022-10-14T12:26:54.155Z,45.96
2022-10-14T12:29:25.885Z,45.88
2022-10-14T12:32:22.531Z,46.30
2022-10-14T12:34:53.773Z,45.98
2022-10-14T12:37:54.432Z,46.13
2022-10-14T12:40:31.268Z,45.92
2022-10-14T12:43:14.136Z,45.86
2022-10-14T12:46:14.168Z,45.88
2022-10-14T12:48:54.879Z,45.92
2022-10-14T12:51:25.228Z,45.71
2022-10-14T12:54:05.852Z,45.55
2022-10-14T12:56:39.752Z,45.23
2022-10-14T12:59:10.520Z,44.91
2022-10-14T13:01:43.892Z,44.09
2022-10-14T13:04:20.293Z,43.71
2022-10-14T13:07:40.242Z,44.63
2022-10-14T13:10:46.919Z,44.42
2022-10-14T13:14:01.436Z,44.78
2022-10-14T13:17:28.612Z,45.15
2022-10-14T13:19:58.558Z,45.26
2022-10-14T13:22:41.442Z,45.15
2022-10-14T13:25:20.102Z,45.44
2022-10-14T13:28:14.384Z,45.85
2022-10-14T13:30:57.433Z,45.98
2022-10-14T13:33:35.014Z,45.99
2022-10-14T13:36:16.743Z,46.11
2022-10-14T13:38:53.313Z,46.13
2022-10-14T13:41:30.765Z,45.62
2022-10-14T13:44:01.569Z,45.16
2022-10-14T13:46:35.171Z,45.22
2022-10-14T13:49:06.891Z,45.11
2022-10-14T13:51:46.367Z,45.32
2022-10-14T13:54:21.576Z,45.32
2022-10-14T14:02:41.096Z,45.70
2022-10-14T14:05:16.978Z,45.83
2022-10-14T14:10:42.534Z,45.69
2022-10-14T14:13:15.278Z,45.83
2022-10-14T14:15:43.784Z,45.97
2022-10-14T14:18:48.881Z,46.08
2022-10-14T14:21:25.589Z,45.91
2022-10-14T14:23:57.930Z,45.63
2022-10-14T14:26:34.647Z,45.78
2022-10-14T14:29:05.947Z,45.73
2022-10-14T14:34:25.617Z,45.85
2022-10-14T14:37:01.393Z,45.93
2022-10-14T14:39:35.724Z,46.02
2022-10-14T14:42:04.132Z,46.19
2022-10-14T14:44:35.538Z,46.06
2022-10-14T14:47:05.727Z,45.73
2022-10-14T14:49:38.398Z,45.76
2022-10-14T14:52:07.562Z,45.87
2022-10-14T14:54:46.534Z,45.90
2022-10-14T14:57:19.741Z,45.75
2022-10-14T14:59:59.365Z,45.86
2022-10-14T15:02:28.262Z,45.92
2022-10-14T15:05:06.425Z,45.66
2022-10-14T15:07:37.327Z,45.54
2022-10-14T15:10:10.269Z,45.58
2022-10-14T15:12:42.515Z,45.51
2022-10-14T15:15:30.538Z,45.51
2022-10-14T15:18:15.893Z,45.44
2022-10-14T15:20:45.156Z,45.50
2022-10-14T15:23:42.833Z,45.70
2022-10-14T15:26:31.395Z,45.91
2022-10-14T15:29:18.792Z,45.83
2022-10-14T15:32:04.250Z,45.84
2022-10-14T15:34:32.916Z,45.88
2022-10-14T15:37:01.325Z,46.03
2022-10-14T15:39:29.816Z,46.02
2022-10-14T15:41:59.988Z,46.12
2022-10-14T15:44:28.381Z,46.16
2022-10-14T15:47:15.637Z,46.28
2022-10-14T15:49:44.171Z,46.19
2022-10-14T15:52:16.565Z,46.07
2022-10-14T15:54:45.932Z,46.38
2022-10-14T15:57:16.852Z,45.98
2022-10-14T15:59:45.490Z,46.44
2022-10-14T16:02:20.008Z,46.27
2022-10-14T16:05:14.769Z,46.65
2022-10-14T16:07:37.327Z,46.54
2022-10-14T16:10:07.832Z,46.32
2022-10-14T16:12:37.683Z,46.49
2022-10-14T16:15:32.913Z,46.75
2022-10-14T16:18:02.325Z,46.46
2022-10-14T16:20:31.585Z,46.63
2022-10-14T16:23:04.353Z,46.47
2022-10-14T16:25:38.973Z,46.72
2022-10-14T16:28:10.215Z,46.72
2022-10-14T16:30:42.094Z,46.61
2022-10-14T16:35:47.938Z,46.76
2022-10-14T16:38:16.422Z,46.52
2022-10-14T16:40:44.829Z,46.51
2022-10-14T16:43:14.567Z,46.81
2022-10-14T16:45:43.048Z,46.87
2022-10-14T16:48:11.391Z,46.80
2022-10-14T16:50:39.848Z,46.93
2022-10-14T16:53:25.321Z,46.95
2022-10-14T16:55:53.758Z,46.53
2022-10-14T16:58:25.575Z,47.08
2022-10-14T17:00:54.022Z,47.03
2022-10-14T17:03:22.746Z,46.77
2022-10-14T17:05:59.112Z,46.72
2022-10-14T17:08:27.911Z,47.11
2022-10-14T17:10:59.434Z,47.22
2022-10-14T17:13:29.842Z,47.30
2022-10-14T17:16:02.069Z,47.29
2022-10-14T17:18:34.498Z,47.06
2022-10-14T17:21:07.117Z,47.16
2022-10-14T17:23:36.340Z,46.90
2022-10-14T17:26:06.377Z,47.01
2022-10-14T17:28:36.921Z,46.70
2022-10-14T17:31:10.667Z,46.88
2022-10-14T17:33:40.238Z,46.70
2022-10-14T17:36:16.227Z,46.71
2022-10-14T17:38:45.880Z,46.25
2022-10-14T17:41:16.924Z,46.34
2022-10-14T17:43:49.541Z,46.33
2022-10-14T17:46:21.313Z,46.53
2022-10-14T17:48:54.348Z,46.50
2022-10-14T17:51:25.424Z,46.51
2022-10-14T17:53:57.263Z,46.32
2022-10-14T17:56:27.467Z,46.42
2022-10-14T17:59:03.645Z,46.85
2022-10-14T18:01:38.042Z,46.54
2022-10-14T18:04:22.104Z,46.69
2022-10-14T18:06:51.137Z,46.98
2022-10-14T18:09:20.898Z,46.63
2022-10-14T18:14:42.044Z,47.23
2022-10-14T18:17:13.145Z,47.14
2022-10-14T18:19:46.101Z,47.00
2022-10-14T18:22:20.192Z,47.12
2022-10-14T18:24:49.085Z,47.14
2022-10-14T18:27:19.300Z,47.34
2022-10-14T18:29:49.948Z,47.47
2022-10-14T18:32:21.027Z,47.34
2022-10-14T18:34:50.386Z,47.58
2022-10-14T18:37:19.505Z,47.59
2022-10-14T18:39:49.011Z,47.69
2022-10-14T18:42:20.881Z,47.72
2022-10-14T18:44:52.615Z,47.73
2022-10-14T18:47:22.207Z,47.66
2022-10-14T18:49:52.939Z,47.96
2022-10-14T18:52:21.662Z,47.89
2022-10-14T18:54:51.032Z,48.21
2022-10-14T18:57:22.722Z,48.12
2022-10-14T18:59:54.085Z,48.21
2022-10-14T19:02:24.372Z,48.32
2022-10-14T19:04:53.637Z,48.51
2022-10-14T19:07:23.214Z,48.60
2022-10-14T19:09:54.198Z,48.68
2022-10-14T19:12:44.733Z,48.78
2022-10-14T19:15:17.152Z,48.75
2022-10-14T19:17:52.193Z,49.02
2022-10-14T19:20:23.602Z,48.99
2022-10-14T19:22:56.703Z,49.23
2022-10-14T19:25:27.245Z,49.08
2022-10-14T19:27:56.312Z,49.42
2022-10-14T19:30:30.003Z,49.23
2022-10-14T19:32:59.740Z,49.50
2022-10-14T19:35:28.851Z,49.44
2022-10-14T19:37:57.420Z,49.64
2022-10-14T19:40:27.515Z,49.75
2022-10-14T19:42:56.998Z,49.75
2022-10-14T19:45:29.810Z,49.79
2022-10-14T19:47:59.491Z,49.83
2022-10-14T19:50:29.239Z,49.75
2022-10-14T19:52:58.197Z,49.92
2022-10-14T19:55:26.897Z,49.81
2022-10-14T19:57:57.869Z,49.85
2022-10-14T20:00:29.088Z,49.95
2022-10-14T20:02:58.284Z,49.79
2022-10-14T20:05:28.948Z,50.07
2022-10-14T20:07:57.705Z,50.17
2022-10-14T20:10:26.466Z,50.23
2022-10-14T20:12:56.034Z,50.25
2022-10-14T20:15:25.305Z,50.17
2022-10-14T20:17:55.098Z,50.12
2022-10-14T20:20:23.734Z,50.26
2022-10-14T20:22:52.278Z,50.23
2022-10-14T20:25:20.654Z,50.35
2022-10-14T20:27:50.725Z,50.47
2022-10-14T20:30:19.480Z,50.37
2022-10-14T20:32:48.442Z,50.37
2022-10-14T20:35:18.422Z,50.47
2022-10-14T20:37:46.899Z,50.46
2022-10-14T20:40:16.032Z,50.66
2022-10-14T20:42:44.401Z,50.66
2022-10-14T20:45:12.867Z,50.76
2022-10-14T20:47:41.279Z,50.83
2022-10-14T20:50:11.182Z,50.79
2022-10-14T20:52:41.045Z,50.71
2022-10-14T20:55:10.195Z,50.91
2022-10-14T20:57:38.882Z,50.90
2022-10-14T21:00:09.555Z,51.07
2022-10-14T21:02:37.988Z,51.08
2022-10-14T21:05:07.487Z,51.10
2022-10-14T21:07:35.869Z,51.13
2022-10-14T21:10:06.904Z,51.33
2022-10-14T21:12:35.390Z,51.23
2022-10-14T21:15:04.046Z,51.32
2022-10-14T21:17:32.574Z,51.37
2022-10-14T21:20:00.923Z,51.61
2022-10-14T21:22:29.398Z,51.67
2022-10-14T21:24:57.878Z,51.69
2022-10-14T21:27:27.593Z,51.63
2022-10-14T21:32:29.267Z,51.87
2022-10-14T21:34:58.591Z,52.07
2022-10-14T21:37:26.908Z,51.98
2022-10-14T21:39:55.257Z,52.13
2022-10-14T21:42:23.901Z,52.04
2022-10-14T21:44:53.800Z,52.09
2022-10-14T21:47:22.169Z,52.03
2022-10-14T21:49:50.520Z,52.25
2022-10-14T21:52:18.910Z,52.19
2022-10-14T21:54:47.311Z,52.31
2022-10-14T21:57:17.251Z,52.41
2022-10-14T21:59:45.611Z,52.38
2022-10-14T22:02:15.335Z,52.40
2022-10-14T22:04:43.734Z,52.54
2022-10-14T22:07:12.088Z,52.59
2022-10-14T22:09:40.492Z,52.49
2022-10-14T22:12:09.005Z,52.51
2022-10-14T22:14:37.369Z,52.60
2022-10-14T22:17:05.772Z,52.50
2022-10-14T22:19:35.528Z,52.73
2022-10-14T22:22:04.413Z,52.59
2022-10-14T22:24:32.772Z,52.69
2022-10-14T22:27:01.116Z,52.65
2022-10-14T22:29:29.520Z,52.80
2022-10-14T22:31:57.855Z,52.93
2022-10-14T22:34:26.239Z,52.85
2022-10-14T22:36:55.978Z,52.78
2022-10-14T22:39:24.363Z,53.02
2022-10-14T22:41:52.923Z,52.99
2022-10-14T22:44:21.409Z,53.00
2022-10-14T22:46:49.735Z,53.10
2022-10-14T22:49:18.095Z,52.95
2022-10-14T22:51:47.253Z,53.01
2022-10-14T22:54:17.298Z,52.96
2022-10-14T22:56:45.703Z,53.19
2022-10-14T22:59:15.629Z,53.28
2022-10-14T23:01:44.813Z,53.34
2022-10-14T23:04:13.703Z,53.47
2022-10-14T23:06:44.839Z,53.28
2022-10-14T23:09:13.395Z,53.44
2022-10-14T23:11:43.599Z,53.41
2022-10-14T23:14:12.032Z,53.42
2022-10-14T23:16:40.830Z,53.38
2022-10-14T23:19:09.355Z,53.49
2022-10-14T23:21:40.278Z,53.44
2022-10-14T23:24:13.482Z,53.49
2022-10-14T23:26:43.262Z,53.59
2022-10-14T23:29:14.634Z,53.62
2022-10-14T23:31:43.215Z,53.55
2022-10-14T23:34:14.342Z,53.60
2022-10-14T23:36:43.399Z,53.50
2022-10-14T23:39:11.999Z,53.50
2022-10-14T23:41:42.068Z,53.43
2022-10-14T23:44:12.971Z,53.50
2022-10-14T23:46:41.344Z,53.34
2022-10-14T23:49:24.864Z,53.44
2022-10-14T23:51:54.427Z,53.33
2022-10-14T23:54:22.792Z,53.42
2022-10-14T23:56:52.616Z,53.32
2022-10-14T23:59:21.007Z,53.39
